Time;durP1;ratioP1;P1;durP2;ratioP2;P2;SDS_P1;SDS_P2;PMS_P1;PMS_P2;Temp;Humidity;BMP_temperature;BMP_pressure;BME280_temperature;BME280_humidity;BME280_pressure;Samples;Min_cycle;Max_cycle;Signal;HPM_P1;HPM_P2
2024/04/03 00:04:20;;;;;;;35.03;33.05;;;;;;;;;;4919871;29;20409;-93
2024/04/03 00:06:46;;;;;;;55.42;52.47;;;;;;;;;;4920074;29;20498;-93
2024/04/03 00:09:13;;;;;;;43.30;40.83;;;;;;;;;;4920338;29;20124;-93
2024/04/03 00:11:39;;;;;;;44.28;41.83;;;;;;;;;;4932185;29;20083;-91
2024/04/03 00:14:11;;;;;;;55.33;52.05;;;;;;;;;;4923409;29;20042;-93
2024/04/03 00:16:37;;;;;;;54.00;51.08;;;;;;;;;;4923547;29;20028;-92
2024/04/03 00:19:09;;;;;;;54.25;50.95;;;;;;;;;;4917675;29;20123;-94
2024/04/03 00:22:05;;;;;;;56.85;53.85;;;;;;;;;;4923989;29;20047;-92
2024/04/03 00:24:46;;;;;;;43.85;41.45;;;;;;;;;;4930008;29;20088;-92
2024/04/03 00:27:18;;;;;;;46.13;43.65;;;;;;;;;;4923528;29;20039;-94
2024/04/03 00:29:51;;;;;;;45.70;43.10;;;;;;;;;;4922889;29;20043;-93
2024/04/03 00:32:26;;;;;;;37.33;35.33;;;;;;;;;;4916366;29;20044;-94
2024/04/03 00:34:58;;;;;;;42.78;40.50;;;;;;;;;;4931284;29;20055;-93
2024/04/03 00:37:24;;;;;;;52.20;49.38;;;;;;;;;;4923498;29;20152;-93
2024/04/03 00:39:57;;;;;;;49.13;46.58;;;;;;;;;;4923028;29;20032;-93
2024/04/03 00:42:39;;;;;;;55.95;52.90;;;;;;;;;;4923087;29;20028;-93
2024/04/03 00:45:17;;;;;;;49.90;47.20;;;;;;;;;;4919361;29;20115;-93
2024/04/03 00:47:47;;;;;;;52.95;50.10;;;;;;;;;;4921363;29;20044;-93
2024/04/03 00:50:28;;;;;;;46.72;43.55;;;;;;;;;;4914387;29;20048;-93
2024/04/03 00:52:55;;;;;;;53.30;50.47;;;;;;;;;;4920642;29;20087;-93
2024/04/03 00:58:27;;;;;;;28.47;26.97;;;;;;;;;;4920610;29;20119;-93
2024/04/03 01:03:59;;;;;;;37.05;34.92;;;;;;;;;;4921043;29;20051;-93
2024/04/03 01:06:41;;;;;;;41.20;38.95;;;;;;;;;;4935885;29;20036;-92
2024/04/03 01:09:10;;;;;;;53.70;50.88;;;;;;;;;;4935991;29;20036;-93
2024/04/03 01:11:36;;;;;;;52.92;50.17;;;;;;;;;;4934873;29;20047;-92
2024/04/03 01:14:14;;;;;;;31.90;30.20;;;;;;;;;;4935218;29;20028;-93
2024/04/03 01:16:46;;;;;;;32.47;30.58;;;;;;;;;;4935200;29;20096;-93
2024/04/03 01:19:15;;;;;;;29.50;27.88;;;;;;;;;;4938044;29;20028;-92
2024/04/03 01:21:44;;;;;;;26.52;25.05;;;;;;;;;;4932189;29;20087;-92
2024/04/03 01:24:36;;;;;;;43.78;41.50;;;;;;;;;;4928890;29;20126;-92
2024/04/03 01:27:06;;;;;;;33.03;31.20;;;;;;;;;;4904437;29;20039;-93
2024/04/03 01:29:35;;;;;;;37.88;35.70;;;;;;;;;;4922536;29;20083;-94
2024/04/03 01:32:05;;;;;;;31.92;30.17;;;;;;;;;;4922202;29;20067;-92
2024/04/03 01:34:33;;;;;;;28.90;27.15;;;;;;;;;;4922420;29;20542;-93
2024/04/03 01:37:02;;;;;;;27.98;26.35;;;;;;;;;;4930657;29;20028;-93
2024/04/03 01:39:30;;;;;;;47.53;45.00;;;;;;;;;;4921999;29;20122;-93
2024/04/03 01:42:02;;;;;;;33.30;31.48;;;;;;;;;;4921270;29;20040;-93
2024/04/03 01:44:34;;;;;;;48.40;45.67;;;;;;;;;;4921670;29;20039;-93
2024/04/03 01:47:15;;;;;;;49.13;46.22;;;;;;;;;;4911287;29;20028;-93
2024/04/03 01:49:44;;;;;;;52.08;48.63;;;;;;;;;;4918288;29;20028;-93
2024/04/03 01:52:11;;;;;;;39.33;37.05;;;;;;;;;;4918620;29;20055;-92
2024/04/03 01:54:37;;;;;;;32.45;30.58;;;;;;;;;;4903412;29;20131;-93
2024/04/03 01:57:04;;;;;;;32.78;30.95;;;;;;;;;;4902485;29;20191;-93
2024/04/03 01:59:36;;;;;;;34.90;32.95;;;;;;;;;;4918761;29;20032;-93
2024/04/03 02:02:05;;;;;;;43.38;41.08;;;;;;;;;;4922103;29;20091;-93
2024/04/03 02:04:31;;;;;;;36.88;34.85;;;;;;;;;;4920464;29;20059;-93
2024/04/03 02:06:58;;;;;;;41.75;39.47;;;;;;;;;;4921569;29;20039;-93
2024/04/03 02:09:24;;;;;;;41.30;38.90;;;;;;;;;;4921213;29;20404;-92
2024/04/03 02:11:54;;;;;;;25.58;23.98;;;;;;;;;;4938431;29;20032;-93
2024/04/03 02:14:20;;;;;;;48.70;46.03;;;;;;;;;;4921561;29;20063;-93
2024/04/03 02:22:27;;;;;;;21.92;20.65;;;;;;;;;;4933540;29;20048;-93
2024/04/03 02:24:59;;;;;;;33.90;31.92;;;;;;;;;;4952540;29;20404;-91
2024/04/03 02:27:28;;;;;;;53.45;50.65;;;;;;;;;;4952394;29;20028;-91
2024/04/03 02:29:54;;;;;;;36.30;34.33;;;;;;;;;;4952505;29;20042;-92
2024/04/03 02:32:20;;;;;;;30.33;28.48;;;;;;;;;;4978915;28;20039;-93
2024/04/03 02:34:47;;;;;;;52.25;49.38;;;;;;;;;;5078409;23;20052;-90
2024/04/03 02:37:19;;;;;;;50.03;46.85;;;;;;;;;;4956233;29;20431;-90
2024/04/03 02:39:51;;;;;;;40.75;38.50;;;;;;;;;;4946697;29;20035;-93
2024/04/03 02:42:30;;;;;;;47.47;44.78;;;;;;;;;;4939461;29;20038;-93
2024/04/03 02:44:58;;;;;;;32.53;30.73;;;;;;;;;;4921042;29;20039;-92
2024/04/03 02:47:25;;;;;;;56.97;53.88;;;;;;;;;;4952368;29;20051;-92
2024/04/03 02:49:54;;;;;;;30.33;28.70;;;;;;;;;;4953450;29;20036;-92
2024/04/03 02:55:25;;;;;;;29.50;27.90;;;;;;;;;;4938399;29;20037;-93
2024/04/03 02:57:51;;;;;;;33.30;31.45;;;;;;;;;;4921605;29;20024;-90
2024/04/03 03:00:23;;;;;;;46.10;43.63;;;;;;;;;;4952532;29;20066;-94
2024/04/03 03:02:52;;;;;;;40.40;38.10;;;;;;;;;;4976134;28;20019;-92
2024/04/03 03:05:31;;;;;;;48.40;45.72;;;;;;;;;;4960588;29;20031;-93
2024/04/03 03:08:02;;;;;;;39.97;37.72;;;;;;;;;;4920464;29;20099;-91
2024/04/03 03:10:28;;;;;;;38.28;36.15;;;;;;;;;;4967244;28;20051;-91
2024/04/03 03:12:59;;;;;;;51.95;49.17;;;;;;;;;;4939633;29;20035;-93
2024/04/03 03:15:29;;;;;;;40.55;38.33;;;;;;;;;;4940507;29;20027;-93
2024/04/03 03:18:01;;;;;;;45.45;42.88;;;;;;;;;;4933938;29;20035;-92
2024/04/03 03:20:28;;;;;;;49.47;46.85;;;;;;;;;;4959588;28;20447;-92
2024/04/03 03:22:54;;;;;;;51.15;48.45;;;;;;;;;;4926770;29;20032;-94
2024/04/03 03:25:25;;;;;;;33.92;32.03;;;;;;;;;;4935909;29;20466;-92
2024/04/03 03:27:51;;;;;;;49.92;47.15;;;;;;;;;;4951692;29;20024;-94
2024/04/03 03:30:24;;;;;;;32.42;30.67;;;;;;;;;;4952215;29;20036;-91
2024/04/03 03:32:53;;;;;;;65.05;61.65;;;;;;;;;;4953663;28;20055;-92
2024/04/03 03:35:22;;;;;;;42.15;39.78;;;;;;;;;;4942484;29;20070;-91
2024/04/03 03:37:54;;;;;;;35.05;33.05;;;;;;;;;;4936809;29;20058;-93
2024/04/03 03:43:27;;;;;;;22.98;21.50;;;;;;;;;;4968075;23;20054;-93
2024/04/03 03:46:08;;;;;;;24.58;23.27;;;;;;;;;;4962161;28;20031;-91
2024/04/03 03:54:10;;;;;;;27.15;25.65;;;;;;;;;;4979184;28;20089;-92
2024/04/03 03:56:39;;;;;;;33.03;31.30;;;;;;;;;;4962107;28;20037;-94
2024/04/03 03:59:06;;;;;;;38.70;36.60;;;;;;;;;;4962105;28;20048;-92
2024/04/03 04:04:33;;;;;;;45.67;43.22;;;;;;;;;;4974911;28;20023;-92
2024/04/03 04:07:07;;;;;;;26.02;24.52;;;;;;;;;;4962353;28;20100;-93
2024/04/03 04:12:39;;;;;;;28.40;26.92;;;;;;;;;;5000491;28;20112;-91
2024/04/03 04:15:07;;;;;;;29.27;27.67;;;;;;;;;;4981488;28;20398;-91
2024/04/03 04:17:37;;;;;;;32.42;30.42;;;;;;;;;;4980644;28;20057;-92
2024/04/03 04:20:07;;;;;;;48.15;45.63;;;;;;;;;;4981467;28;20113;-91
2024/04/03 04:22:37;;;;;;;47.13;44.60;;;;;;;;;;4975088;28;20099;-91
2024/04/03 04:25:04;;;;;;;35.35;33.22;;;;;;;;;;4963081;28;20431;-92
2024/04/03 04:27:31;;;;;;;51.15;48.30;;;;;;;;;;4962962;28;20407;-92
2024/04/03 04:29:57;;;;;;;52.00;49.20;;;;;;;;;;4961661;28;20038;-92
2024/04/03 04:32:23;;;;;;;60.75;57.50;;;;;;;;;;4962507;28;20031;-92
2024/04/03 04:34:49;;;;;;;63.78;60.47;;;;;;;;;;4961775;28;20081;-91
2024/04/03 04:37:16;;;;;;;53.50;50.65;;;;;;;;;;4973155;28;20041;-91
2024/04/03 04:39:42;;;;;;;56.33;53.00;;;;;;;;;;4961600;28;20078;-91
2024/04/03 04:42:11;;;;;;;43.45;41.00;;;;;;;;;;4960756;28;20026;-90
2024/04/03 04:44:38;;;;;;;37.17;35.15;;;;;;;;;;4962170;28;20042;-91
2024/04/03 04:47:04;;;;;;;28.58;27.08;;;;;;;;;;4996878;28;20034;-92
2024/04/03 04:49:30;;;;;;;56.53;53.42;;;;;;;;;;4980438;28;20054;-93
2024/04/03 04:51:59;;;;;;;52.78;49.97;;;;;;;;;;4980402;28;20081;-92
2024/04/03 04:54:25;;;;;;;55.08;52.15;;;;;;;;;;4981592;28;20080;-92
2024/04/03 04:56:51;;;;;;;35.63;33.65;;;;;;;;;;4980108;28;20026;-93
2024/04/03 04:59:18;;;;;;;34.22;32.40;;;;;;;;;;4980072;28;20033;-93
2024/04/03 05:01:44;;;;;;;48.80;46.20;;;;;;;;;;4980157;28;20042;-92
2024/04/03 05:04:11;;;;;;;50.10;47.40;;;;;;;;;;4981322;28;20049;-92
2024/04/03 05:06:40;;;;;;;45.13;42.63;;;;;;;;;;4966160;28;20046;-91
2024/04/03 05:09:06;;;;;;;53.88;50.90;;;;;;;;;;4973904;28;20039;-91
2024/04/03 05:11:33;;;;;;;35.17;33.20;;;;;;;;;;4979903;28;20064;-91
2024/04/03 05:14:02;;;;;;;31.23;29.55;;;;;;;;;;4980016;28;20487;-91
2024/04/03 05:16:29;;;;;;;22.13;20.83;;;;;;;;;;4981250;28;20037;-94
2024/04/03 05:18:55;;;;;;;27.65;26.15;;;;;;;;;;4983180;28;20030;-94
2024/04/03 05:21:25;;;;;;;39.67;37.42;;;;;;;;;;4981980;28;20034;-94
2024/04/03 05:23:57;;;;;;;56.72;53.67;;;;;;;;;;4982155;28;20022;-94
2024/04/03 05:26:23;;;;;;;52.95;50.00;;;;;;;;;;4979967;28;20539;-93
2024/04/03 05:35:15;;;;;;;42.73;40.43;;;;;;;;;;4880830;29;20093;-93
2024/04/03 05:40:17;;;;;;;25.10;23.70;;;;;;;;;;5052241;23;20098;-90
2024/04/03 05:42:46;;;;;;;24.38;22.88;;;;;;;;;;4991849;28;20053;-91
2024/04/03 05:45:16;;;;;;;22.95;21.60;;;;;;;;;;4983170;28;20022;-92
2024/04/03 05:47:42;;;;;;;22.55;21.15;;;;;;;;;;4979850;28;20034;-90
2024/04/03 05:50:08;;;;;;;24.35;22.88;;;;;;;;;;4978762;28;20018;-90
2024/04/03 05:52:35;;;;;;;24.20;22.73;;;;;;;;;;4979023;28;20038;-92
2024/04/03 05:55:01;;;;;;;18.73;17.63;;;;;;;;;;4978489;28;20090;-92
2024/04/03 05:57:27;;;;;;;18.73;17.52;;;;;;;;;;4978504;28;20483;-91
2024/04/03 06:00:05;;;;;;;19.02;17.92;;;;;;;;;;4979685;28;20029;-91
2024/04/03 06:02:34;;;;;;;15.13;14.20;;;;;;;;;;4978371;28;20027;-91
2024/04/03 06:05:00;;;;;;;12.98;12.13;;;;;;;;;;4969059;28;20027;-91
2024/04/03 06:07:30;;;;;;;11.95;11.05;;;;;;;;;;4971145;28;20371;-91
2024/04/03 06:09:56;;;;;;;9.85;9.00;;;;;;;;;;4971138;28;20054;-91
2024/04/03 06:12:22;;;;;;;10.13;9.43;;;;;;;;;;4980681;28;20049;-92
2024/04/03 06:14:48;;;;;;;9.18;8.63;;;;;;;;;;4963463;28;20058;-92
2024/04/03 06:17:17;;;;;;;8.23;7.68;;;;;;;;;;4981308;28;20038;-92
2024/04/03 06:19:46;;;;;;;7.32;6.47;;;;;;;;;;4979638;28;20042;-93
2024/04/03 06:22:29;;;;;;;7.47;6.97;;;;;;;;;;4975319;28;20042;-92
2024/04/03 06:25:04;;;;;;;;;;;;;;;;;;4964854;28;20042;-91
2024/04/03 06:27:33;;;;;;;7.60;7.00;;;;;;;;;;4964659;28;19928;-91
2024/04/03 06:33:05;;;;;;;5.75;5.35;;;;;;;;;;4978594;28;20045;-92
2024/04/03 06:35:43;;;;;;;6.40;5.90;;;;;;;;;;4956830;28;20035;-92
2024/04/03 06:38:12;;;;;;;6.07;5.57;;;;;;;;;;4957256;28;20122;-90
2024/04/03 06:47:05;;;;;;;6.18;5.68;;;;;;;;;;4979814;28;20082;-93
2024/04/03 06:52:34;;;;;;;5.95;5.40;;;;;;;;;;5006437;28;20057;-93
2024/04/03 06:55:25;;;;;;;6.95;5.90;;;;;;;;;;4988414;28;20033;-94
2024/04/03 06:57:54;;;;;;;7.68;5.45;;;;;;;;;;4957979;28;20034;-92
2024/04/03 07:00:39;;;;;;;5.38;4.88;;;;;;;;;;5005294;28;20034;-93
2024/04/03 07:03:31;;;;;;;6.68;6.18;;;;;;;;;;4988829;28;20391;-93
2024/04/03 07:06:05;;;;;;;6.43;5.82;;;;;;;;;;5005494;28;20038;-92
2024/04/03 07:08:44;;;;;;;5.25;4.82;;;;;;;;;;4997257;28;20034;-94
2024/04/03 07:11:11;;;;;;;3.80;3.50;;;;;;;;;;5010115;28;20097;-92
2024/04/03 07:13:43;;;;;;;5.15;4.13;;;;;;;;;;4989996;28;20510;-94
2024/04/03 07:16:23;;;;;;;4.47;4.10;;;;;;;;;;4991379;28;20533;-94
2024/04/03 07:21:49;;;;;;;5.10;4.10;;;;;;;;;;5006047;28;20522;-89
2024/04/03 07:24:18;;;;;;;4.05;3.38;;;;;;;;;;4990933;28;20033;-91
2024/04/03 07:26:53;;;;;;;4.00;3.70;;;;;;;;;;4988515;28;20058;-90
2024/04/03 07:29:25;;;;;;;3.85;3.40;;;;;;;;;;4994297;28;20030;-92
2024/04/03 07:32:03;;;;;;;5.18;4.28;;;;;;;;;;4983701;28;20043;-91
2024/04/03 07:34:46;;;;;;;5.22;4.65;;;;;;;;;;4937338;28;20035;-93
2024/04/03 07:40:23;;;;;;;4.68;3.90;;;;;;;;;;4948646;28;20042;-93
2024/04/03 07:43:23;;;;;;;4.57;4.18;;;;;;;;;;4974470;28;20047;-93
2024/04/03 07:46:14;;;;;;;5.18;3.38;;;;;;;;;;4986594;28;20042;-94
2024/04/03 07:48:40;;;;;;;3.72;3.35;;;;;;;;;;4990985;28;20053;-94
2024/04/03 07:51:29;;;;;;;4.97;4.47;;;;;;;;;;4990275;28;20030;-94
2024/04/03 07:54:05;;;;;;;5.22;4.82;;;;;;;;;;4908366;29;20037;-95
2024/04/03 07:56:31;;;;;;;5.18;4.68;;;;;;;;;;4888917;29;20413;-92
2024/04/03 07:59:02;;;;;;;5.45;4.93;;;;;;;;;;4887436;29;20033;-92
2024/04/03 08:01:28;;;;;;;4.88;4.43;;;;;;;;;;4884654;29;20040;-90
2024/04/03 08:03:54;;;;;;;5.85;4.65;;;;;;;;;;4863237;29;20073;-91
2024/04/03 08:06:23;;;;;;;4.65;3.40;;;;;;;;;;4978490;28;20117;-93
2024/04/03 08:08:49;;;;;;;5.80;3.35;;;;;;;;;;4974719;28;20023;-88
2024/04/03 08:11:15;;;;;;;4.32;3.92;;;;;;;;;;4957726;28;20050;-89
2024/04/03 08:13:41;;;;;;;4.50;4.10;;;;;;;;;;4966717;28;20551;-88
2024/04/03 08:16:08;;;;;;;4.97;3.80;;;;;;;;;;4985367;28;20035;-88
2024/04/03 08:18:35;;;;;;;5.10;4.63;;;;;;;;;;4981804;28;20030;-88
2024/04/03 08:21:06;;;;;;;5.18;3.50;;;;;;;;;;4979985;28;20202;-90
2024/04/03 08:23:41;;;;;;;4.88;4.47;;;;;;;;;;4980213;28;20081;-89
2024/04/03 08:26:11;;;;;;;5.25;4.57;;;;;;;;;;4980349;28;20033;-90
2024/04/03 08:28:38;;;;;;;6.13;5.45;;;;;;;;;;4980157;28;20041;-90
2024/04/03 08:31:10;;;;;;;5.13;4.68;;;;;;;;;;4980210;28;20057;-91
2024/04/03 08:33:36;;;;;;;5.20;4.80;;;;;;;;;;4979924;28;20027;-90
2024/04/03 08:36:02;;;;;;;4.20;0.93;;;;;;;;;;4980123;28;20077;-89
2024/04/03 08:38:29;;;;;;;5.35;4.93;;;;;;;;;;4980216;28;20554;-92
2024/04/03 08:41:07;;;;;;;5.10;4.70;;;;;;;;;;4996856;28;20054;-91
2024/04/03 08:43:43;;;;;;;7.18;4.63;;;;;;;;;;4999414;28;20037;-93
2024/04/03 08:49:09;;;;;;;5.97;4.85;;;;;;;;;;4966748;28;20353;-91
2024/04/03 08:51:40;;;;;;;7.20;5.38;;;;;;;;;;4980066;28;20062;-93
2024/04/03 08:54:09;;;;;;;5.38;4.97;;;;;;;;;;5067769;23;20123;-92
2024/04/03 08:56:35;;;;;;;5.65;4.95;;;;;;;;;;4960513;28;20453;-92
2024/04/03 08:59:08;;;;;;;5.05;4.60;;;;;;;;;;4960217;28;20395;-90
2024/04/03 09:01:37;;;;;;;6.00;5.50;;;;;;;;;;4960541;28;20463;-92
2024/04/03 09:04:06;;;;;;;5.75;5.10;;;;;;;;;;4977601;28;20031;-91
2024/04/03 09:06:54;;;;;;;4.22;3.83;;;;;;;;;;4979298;28;20037;-91
2024/04/03 09:09:34;;;;;;;5.85;4.18;;;;;;;;;;4979305;28;20031;-93
2024/04/03 09:12:10;;;;;;;4.80;4.40;;;;;;;;;;4979379;28;20026;-93
2024/04/03 09:14:49;;;;;;;;;;;;;;;;;;;;;
2024/04/03 09:17:18;;;;;;;5.18;4.68;;;;;;;;;;4996978;28;20037;-93
2024/04/03 09:19:56;;;;;;;4.75;4.35;;;;;;;;;;4979058;28;20117;-93
2024/04/03 09:22:23;;;;;;;6.55;5.82;;;;;;;;;;4979035;28;20462;-93
2024/04/03 09:24:52;;;;;;;6.20;5.72;;;;;;;;;;4980872;28;20034;-92
2024/04/03 09:27:18;;;;;;;7.00;6.30;;;;;;;;;;4982618;28;20030;-92
2024/04/03 09:30:03;;;;;;;7.43;5.18;;;;;;;;;;4981444;28;20026;-93
2024/04/03 09:32:36;;;;;;;7.28;6.75;;;;;;;;;;4983739;28;20030;-91
2024/04/03 09:35:06;;;;;;;6.80;6.30;;;;;;;;;;4975394;28;20062;-92
2024/04/03 09:37:35;;;;;;;7.55;6.93;;;;;;;;;;4975656;28;20031;-92
2024/04/03 09:40:16;;;;;;;8.10;7.38;;;;;;;;;;4974875;28;20030;-91
2024/04/03 16:12:16;;;;;;;25.70;24.13;;;;;;;;;;5153457;27;20386;-92
2024/04/03 16:14:45;;;;;;;23.90;22.35;;;;;;;;;;5156798;27;20047;-95
2024/04/03 16:17:11;;;;;;;16.70;15.20;;;;;;;;;;5150261;27;20027;-95
2024/04/03 16:19:59;;;;;;;23.30;21.73;;;;;;;;;;5133456;28;20400;-95
2024/04/03 16:22:28;;;;;;;15.45;14.35;;;;;;;;;;5132120;28;20085;-92
2024/04/03 16:28:26;;;;;;;12.48;11.68;;;;;;;;;;5130505;27;20054;-94
2024/04/03 16:31:03;;;;;;;15.23;14.13;;;;;;;;;;5124922;28;20028;-95
2024/04/03 16:35:58;;;;;;;24.38;17.33;;;;;;;;;;5113217;22;20467;-96
2024/04/03 16:38:24;;;;;;;12.93;11.88;;;;;;;;;;5057706;28;20081;-94
2024/04/03 16:41:10;;;;;;;14.27;13.25;;;;;;;;;;5062117;28;20033;-93
2024/04/03 16:43:36;;;;;;;15.38;14.25;;;;;;;;;;5063760;28;20078;-94
2024/04/03 16:46:05;;;;;;;12.32;11.10;;;;;;;;;;5058499;28;20025;-95
2024/04/03 16:51:37;;;;;;;16.42;14.98;;;;;;;;;;4995011;28;20035;-95
2024/04/03 16:54:41;;;;;;;;;;;;;;;;;;;;;
2024/04/03 17:00:07;;;;;;;20.52;18.92;;;;;;;;;;5004513;28;20028;-94
2024/04/03 17:05:21;;;;;;;18.98;17.67;;;;;;;;;;5085009;28;20519;-94
2024/04/03 17:13:07;;;;;;;21.75;15.50;;;;;;;;;;5146349;22;19921;-93
2024/04/03 17:15:36;;;;;;;12.45;11.45;;;;;;;;;;5016530;28;20112;-93
2024/04/03 17:18:02;;;;;;;13.93;12.80;;;;;;;;;;5016935;28;20026;-93
2024/04/03 17:20:31;;;;;;;12.77;11.50;;;;;;;;;;5012466;28;20026;-93
2024/04/03 17:23:00;;;;;;;17.25;15.80;;;;;;;;;;4996387;28;20027;-93
2024/04/03 17:25:32;;;;;;;17.42;16.20;;;;;;;;;;4999456;28;20030;-94
2024/04/03 17:27:58;;;;;;;14.68;13.07;;;;;;;;;;5021047;28;20059;-95
2024/04/03 17:36:04;;;;;;;27.95;25.23;;;;;;;;;;5643731;22;20020;-94
2024/04/03 17:38:43;;;;;;;;;;;;;;;;;;;;;
2024/04/03 17:41:22;;;;;;;20.08;18.27;;;;;;;;;;5017135;28;20081;-95
2024/04/03 17:44:20;;;;;;;;;;;;;;;;;;;;;
2024/04/03 17:46:44;;;;;;;23.85;21.95;;;;;;;;;;5413842;23;20645;-94
2024/04/03 18:00:32;;;;;;;20.42;18.42;;;;;;;;;;5144277;22;20062;-93
2024/04/03 18:03:01;;;;;;;21.02;19.08;;;;;;;;;;5017686;28;20022;-95
2024/04/03 18:05:27;;;;;;;27.25;24.90;;;;;;;;;;5025079;28;20030;-95
2024/04/03 18:11:35;;;;;;;24.55;22.35;;;;;;;;;;4997759;28;20054;-95
2024/04/03 18:17:47;;;;;;;29.88;26.52;;;;;;;;;;4986543;28;20147;-94
2024/04/03 18:20:40;;;;;;;29.95;24.73;;;;;;;;;;4938928;29;20036;-95
2024/04/03 18:23:12;;;;;;;35.40;32.10;;;;;;;;;;4878610;29;20037;-95
2024/04/03 18:26:13;;;;;;;31.52;28.23;;;;;;;;;;4888099;29;20048;-94
2024/04/03 18:34:15;;;;;;;24.80;22.60;;;;;;;;;;5351137;23;20050;-92
2024/04/03 18:37:06;;;;;;;29.00;26.02;;;;;;;;;;4987263;28;20037;-93
2024/04/03 18:39:38;;;;;;;29.45;26.73;;;;;;;;;;4988557;28;20037;-93
2024/04/03 18:42:19;;;;;;;34.80;31.83;;;;;;;;;;4995211;28;20486;-93
2024/04/03 18:45:01;;;;;;;26.13;23.90;;;;;;;;;;4995826;28;20515;-93
2024/04/03 18:47:42;;;;;;;34.90;31.50;;;;;;;;;;4998645;28;20022;-92
2024/04/03 18:50:19;;;;;;;39.55;36.45;;;;;;;;;;5006824;28;20467;-92
2024/04/03 18:52:54;;;;;;;40.17;36.17;;;;;;;;;;5016486;28;20110;-93
2024/04/03 18:55:26;;;;;;;35.25;32.08;;;;;;;;;;5007519;28;20368;-92
2024/04/03 18:57:55;;;;;;;37.95;34.38;;;;;;;;;;4989904;28;20498;-94
2024/04/03 19:00:21;;;;;;;40.33;37.15;;;;;;;;;;4979004;28;20053;-93
2024/04/03 19:02:57;;;;;;;30.63;28.02;;;;;;;;;;4979339;28;20121;-94
2024/04/03 19:05:51;;;;;;;35.72;32.15;;;;;;;;;;4979055;28;20077;-93
2024/04/03 19:08:17;;;;;;;34.67;31.92;;;;;;;;;;5008791;28;20034;-94
2024/04/03 19:10:49;;;;;;;21.05;19.00;;;;;;;;;;4986043;28;20491;-94
2024/04/03 19:13:21;;;;;;;39.05;36.22;;;;;;;;;;4991962;28;20022;-94
2024/04/03 19:16:29;;;;;;;33.97;31.58;;;;;;;;;;4980870;28;20030;-94
2024/04/03 19:19:40;;;;;;;;;;;;;;;;;;;;;
2024/04/03 19:22:08;;;;;;;35.60;32.60;;;;;;;;;;4956497;28;20043;-93
2024/04/03 19:24:57;;;;;;;33.92;31.10;;;;;;;;;;4975396;28;20038;-92
2024/04/03 19:27:31;;;;;;;29.33;26.35;;;;;;;;;;4962555;28;20051;-93
2024/04/03 19:30:13;;;;;;;42.00;38.75;;;;;;;;;;4974622;28;20038;-94
2024/04/03 19:32:40;;;;;;;28.73;26.00;;;;;;;;;;4972018;28;20046;-93
2024/04/03 19:35:17;;;;;;;45.63;42.17;;;;;;;;;;4975491;28;20039;-93
2024/04/03 19:37:47;;;;;;;47.28;43.42;;;;;;;;;;4974778;28;20035;-95
2024/04/03 19:40:25;;;;;;;33.05;29.75;;;;;;;;;;4975097;28;20031;-93
2024/04/03 19:42:53;;;;;;;39.42;35.90;;;;;;;;;;4959789;28;20130;-94
2024/04/03 19:45:26;;;;;;;46.97;42.95;;;;;;;;;;4975307;28;20484;-94
2024/04/03 19:47:52;;;;;;;35.67;32.03;;;;;;;;;;4973429;28;20042;-93
2024/04/03 19:50:19;;;;;;;33.22;29.13;;;;;;;;;;4974413;28;20073;-91
2024/04/03 19:52:45;;;;;;;28.05;23.30;;;;;;;;;;4973927;28;20054;-93
2024/04/03 19:55:11;;;;;;;34.15;30.75;;;;;;;;;;4978259;28;20125;-92
2024/04/03 19:57:38;;;;;;;37.83;34.28;;;;;;;;;;4978336;28;20121;-93
2024/04/03 20:00:06;;;;;;;40.13;36.67;;;;;;;;;;4982462;28;20023;-93
2024/04/03 20:02:35;;;;;;;31.70;28.95;;;;;;;;;;4955699;29;20024;-93
2024/04/03 20:05:01;;;;;;;38.63;35.22;;;;;;;;;;4955519;29;20027;-94
2024/04/03 20:07:27;;;;;;;27.40;24.52;;;;;;;;;;4955408;29;20118;-92
2024/04/03 20:09:53;;;;;;;33.72;30.77;;;;;;;;;;4955089;29;20032;-92
2024/04/03 20:12:19;;;;;;;31.83;28.85;;;;;;;;;;4978066;28;20023;-94
2024/04/03 20:14:46;;;;;;;48.88;44.85;;;;;;;;;;4967908;28;20122;-94
2024/04/03 20:17:12;;;;;;;31.83;29.00;;;;;;;;;;4964240;28;20035;-94
2024/04/03 20:19:38;;;;;;;25.50;23.23;;;;;;;;;;4974263;28;20170;-94
2024/04/03 20:22:05;;;;;;;26.35;23.88;;;;;;;;;;4974320;28;20162;-91
2024/04/03 20:24:31;;;;;;;36.45;34.03;;;;;;;;;;4974921;28;20023;-92
2024/04/03 20:27:00;;;;;;;35.20;32.67;;;;;;;;;;4975127;28;20023;-91
2024/04/03 20:29:26;;;;;;;39.97;37.38;;;;;;;;;;4966666;28;20051;-92
2024/04/03 20:31:57;;;;;;;32.30;30.00;;;;;;;;;;4960256;28;20031;-92
2024/04/03 20:34:23;;;;;;;35.75;33.45;;;;;;;;;;4983550;28;20039;-92
2024/04/03 20:36:53;;;;;;;35.80;33.50;;;;;;;;;;4994054;28;20098;-91
2024/04/03 20:39:19;;;;;;;30.13;28.13;;;;;;;;;;4987099;28;20019;-94
2024/04/03 20:41:46;;;;;;;32.10;30.13;;;;;;;;;;4979215;28;20027;-93
2024/04/03 20:44:12;;;;;;;35.65;33.47;;;;;;;;;;4974870;28;20027;-94
2024/04/03 20:46:39;;;;;;;29.95;28.08;;;;;;;;;;4975589;28;20117;-93
2024/04/03 20:49:05;;;;;;;27.77;25.90;;;;;;;;;;4978057;28;20399;-95
2024/04/03 20:51:31;;;;;;;34.65;32.65;;;;;;;;;;4977487;28;20129;-93
2024/04/03 20:53:57;;;;;;;35.08;33.00;;;;;;;;;;4961326;28;20055;-94
2024/04/03 20:56:24;;;;;;;33.67;31.63;;;;;;;;;;4977655;28;20058;-94
2024/04/03 20:58:50;;;;;;;31.85;30.02;;;;;;;;;;4977614;28;20019;-94
2024/04/03 21:01:17;;;;;;;34.20;32.05;;;;;;;;;;4958927;28;20510;-92
2024/04/03 21:03:43;;;;;;;33.40;31.50;;;;;;;;;;4958424;29;20027;-94
2024/04/03 21:06:09;;;;;;;36.75;34.33;;;;;;;;;;4958320;29;20031;-93
2024/04/03 21:08:37;;;;;;;33.10;31.17;;;;;;;;;;4958541;29;20027;-94
2024/04/03 21:11:04;;;;;;;37.42;35.22;;;;;;;;;;4958137;29;20039;-94
2024/04/03 21:13:30;;;;;;;28.15;26.45;;;;;;;;;;4958444;29;20035;-93
2024/04/03 21:15:56;;;;;;;34.78;32.83;;;;;;;;;;4957935;29;20035;-94
2024/04/03 21:18:22;;;;;;;33.15;31.15;;;;;;;;;;4957941;29;20027;-94
2024/04/03 21:20:48;;;;;;;35.92;33.92;;;;;;;;;;4957729;29;20037;-95
2024/04/03 21:23:14;;;;;;;35.67;33.47;;;;;;;;;;4957932;29;20031;-95
2024/04/03 21:25:41;;;;;;;32.58;30.58;;;;;;;;;;4957701;29;20024;-94
2024/04/03 21:28:08;;;;;;;26.42;24.73;;;;;;;;;;4963702;28;20034;-94
2024/04/03 21:30:34;;;;;;;25.40;23.90;;;;;;;;;;4977377;28;20043;-93
2024/04/03 21:33:01;;;;;;;27.80;26.17;;;;;;;;;;4976876;28;20055;-94
2024/04/03 21:35:27;;;;;;;22.40;20.85;;;;;;;;;;4977958;28;20026;-94
2024/04/03 21:37:56;;;;;;;28.95;27.15;;;;;;;;;;4978106;28;20027;-93
2024/04/03 21:40:22;;;;;;;27.25;25.40;;;;;;;;;;4977381;28;20027;-95
2024/04/03 21:42:48;;;;;;;29.23;27.42;;;;;;;;;;4976683;28;20038;-94
2024/04/03 21:45:14;;;;;;;30.77;28.77;;;;;;;;;;4963962;28;20102;-93
2024/04/03 21:47:41;;;;;;;29.55;27.65;;;;;;;;;;4957443;29;20023;-93
2024/04/03 21:50:07;;;;;;;20.92;19.52;;;;;;;;;;4957037;29;20098;-94
2024/04/03 21:52:33;;;;;;;24.27;22.60;;;;;;;;;;4957353;29;20024;-95
2024/04/03 21:57:49;;;;;;;19.38;18.05;;;;;;;;;;5240909;23;20061;-93
2024/04/03 22:00:15;;;;;;;19.85;18.35;;;;;;;;;;5020253;28;20423;-93
2024/04/03 22:02:44;;;;;;;20.90;15.77;;;;;;;;;;5015488;28;20464;-93
2024/04/03 22:05:11;;;;;;;13.48;12.30;;;;;;;;;;5014999;28;20028;-92
2024/04/03 22:07:37;;;;;;;19.92;18.60;;;;;;;;;;5015531;28;20121;-93
2024/04/03 22:10:04;;;;;;;13.70;12.60;;;;;;;;;;5014982;28;20034;-94
2024/04/03 22:12:30;;;;;;;13.93;12.57;;;;;;;;;;5017523;28;20079;-93
2024/04/03 22:14:57;;;;;;;15.88;14.40;;;;;;;;;;5015766;28;20022;-93
2024/04/03 22:17:23;;;;;;;15.52;14.25;;;;;;;;;;5012004;28;20038;-94
2024/04/03 22:19:49;;;;;;;18.63;17.38;;;;;;;;;;5008509;28;20034;-94
2024/04/03 22:22:15;;;;;;;8.52;7.72;;;;;;;;;;5015205;28;20032;-93
2024/04/03 22:24:41;;;;;;;22.75;21.05;;;;;;;;;;5014894;28;20026;-95
2024/04/03 22:27:08;;;;;;;14.07;13.00;;;;;;;;;;5014931;28;20026;-93
2024/04/03 22:29:34;;;;;;;21.48;20.13;;;;;;;;;;5014913;28;20026;-92
2024/04/03 22:32:00;;;;;;;10.93;9.95;;;;;;;;;;5015762;28;20034;-94
2024/04/03 22:34:26;;;;;;;10.43;9.40;;;;;;;;;;5012786;28;20075;-94
2024/04/03 22:36:53;;;;;;;11.02;10.07;;;;;;;;;;4995858;28;20099;-93
2024/04/03 22:39:19;;;;;;;14.10;13.15;;;;;;;;;;4996217;28;20042;-91
2024/04/03 22:41:46;;;;;;;13.38;12.20;;;;;;;;;;4995585;28;20023;-93
2024/04/03 22:44:12;;;;;;;16.05;14.70;;;;;;;;;;5007906;28;20026;-93
2024/04/03 22:46:39;;;;;;;19.00;17.50;;;;;;;;;;5014825;28;20618;-94
2024/04/03 22:49:08;;;;;;;11.45;10.30;;;;;;;;;;5014555;28;20065;-93
2024/04/03 22:51:35;;;;;;;24.80;23.15;;;;;;;;;;5014753;28;20030;-93
2024/04/03 22:54:02;;;;;;;14.75;13.40;;;;;;;;;;5014574;28;20037;-93
2024/04/03 22:56:28;;;;;;;13.65;12.43;;;;;;;;;;5014094;28;20049;-93
2024/04/03 22:58:55;;;;;;;18.92;17.67;;;;;;;;;;5014664;28;20042;-94
2024/04/03 23:01:21;;;;;;;31.20;29.20;;;;;;;;;;5014414;28;20068;-93
2024/04/03 23:03:47;;;;;;;18.83;17.48;;;;;;;;;;5010960;28;20077;-93
2024/04/03 23:06:13;;;;;;;29.17;27.13;;;;;;;;;;5004543;28;20033;-95
2024/04/03 23:08:39;;;;;;;24.70;23.05;;;;;;;;;;5014488;28;20072;-94
2024/04/03 23:11:06;;;;;;;34.90;32.75;;;;;;;;;;5013514;28;20057;-93
2024/04/03 23:13:33;;;;;;;32.78;30.73;;;;;;;;;;5016694;28;20063;-93